createdAt,value
2022-09-26T20:41:56.895Z,17.58
2022-09-26T20:44:30.244Z,17.65
2022-09-26T20:47:00.574Z,17.77
2022-09-26T20:49:35.077Z,17.89
2022-09-26T20:52:04.196Z,18.01
2022-09-26T20:54:33.395Z,18.06
2022-09-26T20:57:04.249Z,18.12
2022-09-26T20:59:35.371Z,18.18
2022-09-26T21:02:23.892Z,18.19
2022-09-26T21:04:52.732Z,18.20
2022-09-26T21:07:22.634Z,18.24
2022-09-26T21:09:50.800Z,18.25
2022-09-26T21:12:19.515Z,18.24
2022-09-26T21:14:47.491Z,18.27
2022-09-26T21:17:18.530Z,18.29
2022-09-26T21:19:46.946Z,18.31
2022-09-26T21:22:37.589Z,18.32
2022-09-26T21:25:07.106Z,18.31
2022-09-26T21:27:35.332Z,18.31
2022-09-26T21:30:04.060Z,18.29
2022-09-26T21:32:33.846Z,18.30
2022-09-26T21:35:04.245Z,18.30
2022-09-26T21:37:32.526Z,18.29
2022-09-26T21:40:02.407Z,18.27
2022-09-26T21:42:30.846Z,18.27
2022-09-26T21:45:06.102Z,18.21
2022-09-26T21:47:36.939Z,18.18
2022-09-26T21:50:08.760Z,18.18
2022-09-26T21:52:59.451Z,18.13
2022-09-26T21:55:33.892Z,18.13
2022-09-26T21:58:07.973Z,18.07
2022-09-26T22:00:36.332Z,18.08
2022-09-26T22:03:04.655Z,18.07
2022-09-26T22:05:33.225Z,18.02
2022-09-26T22:08:02.445Z,18.03
2022-09-26T22:10:31.728Z,17.99
2022-09-26T22:12:59.967Z,17.92
2022-09-26T22:15:28.165Z,17.88
2022-09-26T22:17:56.479Z,17.87
2022-09-26T22:20:24.634Z,17.76
2022-09-26T22:22:55.944Z,17.76
2022-09-26T22:25:24.188Z,17.69
2022-09-26T22:27:52.387Z,17.70
2022-09-26T22:30:20.591Z,17.66
2022-09-26T22:32:48.795Z,17.65
2022-09-26T22:35:16.940Z,17.58
2022-09-26T22:37:45.090Z,17.58
2022-09-26T22:40:13.254Z,17.57
2022-09-26T22:42:41.499Z,17.59
2022-09-26T22:45:10.130Z,17.61
2022-09-26T22:47:38.655Z,17.64
2022-09-26T22:50:07.052Z,17.63
2022-09-26T22:52:35.209Z,17.60
2022-09-26T22:55:03.450Z,17.59
2022-09-26T22:57:31.801Z,17.60
2022-09-26T23:00:02.122Z,17.62
2022-09-26T23:02:31.028Z,17.61
2022-09-26T23:04:59.239Z,17.57
2022-09-26T23:07:27.320Z,17.50
2022-09-26T23:09:55.520Z,17.47
2022-09-26T23:12:23.841Z,17.44
2022-09-26T23:14:51.919Z,17.40
2022-09-26T23:17:20.052Z,17.42
2022-09-26T23:19:48.122Z,17.39
2022-09-26T23:22:16.241Z,17.37
2022-09-26T23:24:44.319Z,17.37
2022-09-26T23:27:12.645Z,17.35
2022-09-26T23:29:41.807Z,17.36
2022-09-26T23:32:09.924Z,17.35
2022-09-26T23:34:38.045Z,17.34
2022-09-26T23:37:06.164Z,17.29
2022-09-26T23:39:34.174Z,17.33
2022-09-26T23:42:03.042Z,17.31
2022-09-26T23:44:32.640Z,17.34
2022-09-26T23:47:02.966Z,17.34
2022-09-26T23:49:31.558Z,17.34
2022-09-26T23:51:59.716Z,17.36
2022-09-26T23:54:27.914Z,17.35
2022-09-26T23:56:55.980Z,17.31
2022-09-26T23:59:24.255Z,17.29
